sensor_id;sensor_type;location;lat;lon;timestamp;temperature;humidity
54846;DHT22;53889;50.084;8.646;2022-11-15T00:01:15;9.60;99.90
54846;DHT22;53889;50.084;8.646;2022-11-15T00:04:03;9.50;99.90
54846;DHT22;53889;50.084;8.646;2022-11-15T00:06:49;9.50;99.90
54846;DHT22;53889;50.084;8.646;2022-11-15T00:09:34;9.60;99.90
54846;DHT22;53889;50.084;8.646;2022-11-15T00:12:20;9.60;99.90
54846;DHT22;53889;50.084;8.646;2022-11-15T00:15:07;9.60;99.90
54846;DHT22;53889;50.084;8.646;2022-11-15T00:17:52;9.60;99.90
54846;DHT22;53889;50.084;8.646;2022-11-15T00:20:39;9.60;99.90
54846;DHT22;53889;50.084;8.646;2022-11-15T00:23:25;9.30;99.90
54846;DHT22;53889;50.084;8.646;2022-11-15T00:26:12;9.10;99.90
54846;DHT22;53889;50.084;8.646;2022-11-15T00:28:57;8.90;99.90
54846;DHT22;53889;50.084;8.646;2022-11-15T00:31:43;8.80;99.90
54846;DHT22;53889;50.084;8.646;2022-11-15T00:34:28;9.00;99.90
54846;DHT22;53889;50.084;8.646;2022-11-15T00:37:16;9.10;99.90
54846;DHT22;53889;50.084;8.646;2022-11-15T00:40:01;9.20;99.90
54846;DHT22;53889;50.084;8.646;2022-11-15T00:42:46;9.30;99.90
54846;DHT22;53889;50.084;8.646;2022-11-15T00:45:33;9.40;99.90
54846;DHT22;53889;50.084;8.646;2022-11-15T00:48:18;9.30;99.90
54846;DHT22;53889;50.084;8.646;2022-11-15T00:51:03;9.30;99.90
54846;DHT22;53889;50.084;8.646;2022-11-15T00:53:50;9.30;99.90
54846;DHT22;53889;50.084;8.646;2022-11-15T00:56:35;9.30;99.90
54846;DHT22;53889;50.084;8.646;2022-11-15T00:59:21;9.30;99.90
54846;DHT22;53889;50.084;8.646;2022-11-15T01:02:06;9.20;99.90
54846;DHT22;53889;50.084;8.646;2022-11-15T01:04:52;9.30;99.90
54846;DHT22;53889;50.084;8.646;2022-11-15T01:07:37;9.30;99.90
54846;DHT22;53889;50.084;8.646;2022-11-15T01:10:24;9.30;99.90
54846;DHT22;53889;50.084;8.646;2022-11-15T01:13:10;9.30;99.90
54846;DHT22;53889;50.084;8.646;2022-11-15T01:15:55;9.20;99.90
54846;DHT22;53889;50.084;8.646;2022-11-15T01:18:41;9.30;99.90
54846;DHT22;53889;50.084;8.646;2022-11-15T01:21:27;9.40;99.90
54846;DHT22;53889;50.084;8.646;2022-11-15T01:24:13;9.40;99.90
54846;DHT22;53889;50.084;8.646;2022-11-15T01:26:59;9.40;99.90
54846;DHT22;53889;50.084;8.646;2022-11-15T01:29:45;9.30;99.90
54846;DHT22;53889;50.084;8.646;2022-11-15T01:32:31;9.20;99.90
54846;DHT22;53889;50.084;8.646;2022-11-15T01:35:16;9.40;99.90
54846;DHT22;53889;50.084;8.646;2022-11-15T01:38:02;9.20;99.90
54846;DHT22;53889;50.084;8.646;2022-11-15T01:40:48;9.20;99.90
54846;DHT22;53889;50.084;8.646;2022-11-15T01:43:36;9.10;99.90
54846;DHT22;53889;50.084;8.646;2022-11-15T01:46:26;9.00;99.90
54846;DHT22;53889;50.084;8.646;2022-11-15T01:49:16;9.00;99.90
54846;DHT22;53889;50.084;8.646;2022-11-15T01:52:06;9.10;99.90
54846;DHT22;53889;50.084;8.646;2022-11-15T01:54:56;9.20;99.90
54846;DHT22;53889;50.084;8.646;2022-11-15T01:57:47;9.30;99.90
54846;DHT22;53889;50.084;8.646;2022-11-15T02:00:35;9.30;99.90
54846;DHT22;53889;50.084;8.646;2022-11-15T02:03:22;9.30;99.90
54846;DHT22;53889;50.084;8.646;2022-11-15T02:06:11;9.20;99.90
54846;DHT22;53889;50.084;8.646;2022-11-15T02:08:58;9.20;99.90
54846;DHT22;53889;50.084;8.646;2022-11-15T02:11:46;9.20;99.90
54846;DHT22;53889;50.084;8.646;2022-11-15T02:14:32;9.20;99.90
54846;DHT22;53889;50.084;8.646;2022-11-15T02:17:31;9.30;99.90
54846;DHT22;53889;50.084;8.646;2022-11-15T02:20:45;9.40;99.90
54846;DHT22;53889;50.084;8.646;2022-11-15T02:30:34;9.40;99.90
54846;DHT22;53889;50.084;8.646;2022-11-15T02:33:29;9.40;99.90
54846;DHT22;53889;50.084;8.646;2022-11-15T02:36:18;9.40;99.90
54846;DHT22;53889;50.084;8.646;2022-11-15T02:39:13;9.40;99.90
54846;DHT22;53889;50.084;8.646;2022-11-15T02:42:02;9.50;99.90
54846;DHT22;53889;50.084;8.646;2022-11-15T02:44:49;9.60;99.90
54846;DHT22;53889;50.084;8.646;2022-11-15T02:47:39;9.60;99.90
54846;DHT22;53889;50.084;8.646;2022-11-15T02:50:29;9.60;99.90
54846;DHT22;53889;50.084;8.646;2022-11-15T02:53:15;9.60;99.90
54846;DHT22;53889;50.084;8.646;2022-11-15T02:56:01;9.50;99.90
54846;DHT22;53889;50.084;8.646;2022-11-15T02:59:00;9.40;99.90
54846;DHT22;53889;50.084;8.646;2022-11-15T03:02:00;9.40;99.90
54846;DHT22;53889;50.084;8.646;2022-11-15T03:04:54;9.40;99.90
54846;DHT22;53889;50.084;8.646;2022-11-15T03:07:44;9.20;99.90
54846;DHT22;53889;50.084;8.646;2022-11-15T03:10:36;9.20;99.90
54846;DHT22;53889;50.084;8.646;2022-11-15T03:13:27;9.20;99.90
54846;DHT22;53889;50.084;8.646;2022-11-15T03:16:20;9.20;99.90
54846;DHT22;53889;50.084;8.646;2022-11-15T03:19:13;9.20;99.90
54846;DHT22;53889;50.084;8.646;2022-11-15T03:22:03;9.20;99.90
54846;DHT22;53889;50.084;8.646;2022-11-15T03:24:52;9.20;99.90
54846;DHT22;53889;50.084;8.646;2022-11-15T03:27:42;9.10;99.90
54846;DHT22;53889;50.084;8.646;2022-11-15T03:30:29;9.00;99.90
54846;DHT22;53889;50.084;8.646;2022-11-15T03:33:16;9.00;99.90
54846;DHT22;53889;50.084;8.646;2022-11-15T03:36:02;9.00;99.90
54846;DHT22;53889;50.084;8.646;2022-11-15T03:38:50;8.80;99.90
54846;DHT22;53889;50.084;8.646;2022-11-15T03:41:42;8.80;99.90
54846;DHT22;53889;50.084;8.646;2022-11-15T03:44:36;8.70;99.90
54846;DHT22;53889;50.084;8.646;2022-11-15T03:47:28;8.60;99.90
54846;DHT22;53889;50.084;8.646;2022-11-15T03:50:17;8.70;99.90
54846;DHT22;53889;50.084;8.646;2022-11-15T03:53:03;8.70;99.90
54846;DHT22;53889;50.084;8.646;2022-11-15T03:55:50;8.70;99.90
54846;DHT22;53889;50.084;8.646;2022-11-15T03:58:36;8.80;99.90
54846;DHT22;53889;50.084;8.646;2022-11-15T04:01:21;8.70;99.90
54846;DHT22;53889;50.084;8.646;2022-11-15T04:04:07;8.80;99.90
54846;DHT22;53889;50.084;8.646;2022-11-15T04:06:52;8.70;99.90
54846;DHT22;53889;50.084;8.646;2022-11-15T04:09:38;8.80;99.90
54846;DHT22;53889;50.084;8.646;2022-11-15T04:12:46;8.90;99.90
54846;DHT22;53889;50.084;8.646;2022-11-15T04:15:32;9.00;99.90
54846;DHT22;53889;50.084;8.646;2022-11-15T04:18:17;8.90;99.90
54846;DHT22;53889;50.084;8.646;2022-11-15T04:21:03;9.00;99.90
54846;DHT22;53889;50.084;8.646;2022-11-15T04:24:06;8.80;99.90
54846;DHT22;53889;50.084;8.646;2022-11-15T04:26:58;8.90;99.90
54846;DHT22;53889;50.084;8.646;2022-11-15T04:29:44;8.80;99.90
54846;DHT22;53889;50.084;8.646;2022-11-15T04:32:29;8.70;99.90
54846;DHT22;53889;50.084;8.646;2022-11-15T04:35:15;8.70;99.90
54846;DHT22;53889;50.084;8.646;2022-11-15T04:38:02;8.70;99.90
54846;DHT22;53889;50.084;8.646;2022-11-15T04:40:47;8.70;99.90
54846;DHT22;53889;50.084;8.646;2022-11-15T04:43:33;8.80;99.90
54846;DHT22;53889;50.084;8.646;2022-11-15T04:46:20;8.90;99.90
54846;DHT22;53889;50.084;8.646;2022-11-15T04:49:05;8.70;99.90
54846;DHT22;53889;50.084;8.646;2022-11-15T04:51:51;8.70;99.90
54846;DHT22;53889;50.084;8.646;2022-11-15T04:54:36;8.70;99.90
54846;DHT22;53889;50.084;8.646;2022-11-15T04:57:22;8.80;99.90
54846;DHT22;53889;50.084;8.646;2022-11-15T05:00:10;8.80;99.90
54846;DHT22;53889;50.084;8.646;2022-11-15T05:02:57;8.90;99.90
54846;DHT22;53889;50.084;8.646;2022-11-15T05:06:00;9.00;99.90
54846;DHT22;53889;50.084;8.646;2022-11-15T05:08:46;9.00;99.90
54846;DHT22;53889;50.084;8.646;2022-11-15T05:11:31;9.10;99.90
54846;DHT22;53889;50.084;8.646;2022-11-15T05:14:17;9.10;99.90
54846;DHT22;53889;50.084;8.646;2022-11-15T05:17:02;9.20;99.90
54846;DHT22;53889;50.084;8.646;2022-11-15T05:19:49;9.10;99.90
54846;DHT22;53889;50.084;8.646;2022-11-15T05:22:36;9.20;99.90
54846;DHT22;53889;50.084;8.646;2022-11-15T05:25:21;9.20;99.90
54846;DHT22;53889;50.084;8.646;2022-11-15T05:28:07;9.10;99.90
54846;DHT22;53889;50.084;8.646;2022-11-15T05:30:52;9.10;99.90
54846;DHT22;53889;50.084;8.646;2022-11-15T05:33:39;9.00;99.90
54846;DHT22;53889;50.084;8.646;2022-11-15T05:36:29;9.00;99.90
54846;DHT22;53889;50.084;8.646;2022-11-15T05:39:16;9.10;99.90
54846;DHT22;53889;50.084;8.646;2022-11-15T05:42:06;9.30;99.90
54846;DHT22;53889;50.084;8.646;2022-11-15T05:44:52;9.30;99.90
54846;DHT22;53889;50.084;8.646;2022-11-15T05:47:39;9.30;99.90
54846;DHT22;53889;50.084;8.646;2022-11-15T05:50:24;9.40;99.90
54846;DHT22;53889;50.084;8.646;2022-11-15T05:53:12;9.50;99.90
54846;DHT22;53889;50.084;8.646;2022-11-15T05:55:58;9.30;99.90
54846;DHT22;53889;50.084;8.646;2022-11-15T05:58:43;9.40;99.90
54846;DHT22;53889;50.084;8.646;2022-11-15T06:01:29;9.40;99.90
54846;DHT22;53889;50.084;8.646;2022-11-15T06:04:15;9.40;99.90
54846;DHT22;53889;50.084;8.646;2022-11-15T06:07:00;9.40;99.90
54846;DHT22;53889;50.084;8.646;2022-11-15T06:09:48;9.50;99.90
54846;DHT22;53889;50.084;8.646;2022-11-15T06:12:33;9.50;99.90
54846;DHT22;53889;50.084;8.646;2022-11-15T06:15:19;9.60;99.90
54846;DHT22;53889;50.084;8.646;2022-11-15T06:18:05;11.10;99.90
54846;DHT22;53889;50.084;8.646;2022-11-15T06:20:50;9.80;99.90
54846;DHT22;53889;50.084;8.646;2022-11-15T06:23:36;9.80;99.90
54846;DHT22;53889;50.084;8.646;2022-11-15T06:26:22;9.90;99.90
54846;DHT22;53889;50.084;8.646;2022-11-15T06:29:08;9.90;99.90
54846;DHT22;53889;50.084;8.646;2022-11-15T06:31:54;9.90;99.90
54846;DHT22;53889;50.084;8.646;2022-11-15T06:34:39;10.00;99.90
54846;DHT22;53889;50.084;8.646;2022-11-15T06:37:25;10.00;99.90
54846;DHT22;53889;50.084;8.646;2022-11-15T06:40:11;10.10;99.90
54846;DHT22;53889;50.084;8.646;2022-11-15T06:42:58;10.10;99.90
54846;DHT22;53889;50.084;8.646;2022-11-15T06:45:44;10.10;99.90
54846;DHT22;53889;50.084;8.646;2022-11-15T06:48:31;10.20;99.90
54846;DHT22;53889;50.084;8.646;2022-11-15T06:51:16;10.20;99.90
54846;DHT22;53889;50.084;8.646;2022-11-15T06:54:02;10.30;99.90
54846;DHT22;53889;50.084;8.646;2022-11-15T06:56:48;10.30;99.90
54846;DHT22;53889;50.084;8.646;2022-11-15T06:59:35;10.20;99.90
54846;DHT22;53889;50.084;8.646;2022-11-15T07:02:20;10.30;99.90
54846;DHT22;53889;50.084;8.646;2022-11-15T07:05:06;10.30;99.90
54846;DHT22;53889;50.084;8.646;2022-11-15T07:07:53;10.30;99.90
54846;DHT22;53889;50.084;8.646;2022-11-15T07:10:39;10.40;99.90
54846;DHT22;53889;50.084;8.646;2022-11-15T07:13:25;10.40;99.90
54846;DHT22;53889;50.084;8.646;2022-11-15T07:16:12;10.50;99.90
54846;DHT22;53889;50.084;8.646;2022-11-15T07:18:57;10.60;99.90
54846;DHT22;53889;50.084;8.646;2022-11-15T07:21:43;10.60;99.90
54846;DHT22;53889;50.084;8.646;2022-11-15T07:24:28;10.70;99.90
54846;DHT22;53889;50.084;8.646;2022-11-15T07:27:14;10.90;99.90
54846;DHT22;53889;50.084;8.646;2022-11-15T07:30:00;11.00;99.90
54846;DHT22;53889;50.084;8.646;2022-11-15T07:32:46;11.10;99.90
54846;DHT22;53889;50.084;8.646;2022-11-15T07:35:32;11.30;99.90
54846;DHT22;53889;50.084;8.646;2022-11-15T07:38:17;11.50;99.90
54846;DHT22;53889;50.084;8.646;2022-11-15T07:41:05;11.70;99.90
54846;DHT22;53889;50.084;8.646;2022-11-15T07:43:51;11.80;99.90
54846;DHT22;53889;50.084;8.646;2022-11-15T07:46:37;11.90;99.90
54846;DHT22;53889;50.084;8.646;2022-11-15T07:49:24;11.90;99.90
54846;DHT22;53889;50.084;8.646;2022-11-15T07:52:09;11.80;99.90
54846;DHT22;53889;50.084;8.646;2022-11-15T07:54:55;11.90;99.90
54846;DHT22;53889;50.084;8.646;2022-11-15T07:57:40;11.80;99.90
54846;DHT22;53889;50.084;8.646;2022-11-15T08:00:26;11.80;99.90
54846;DHT22;53889;50.084;8.646;2022-11-15T08:03:14;11.80;99.90
54846;DHT22;53889;50.084;8.646;2022-11-15T08:06:01;11.80;99.90
54846;DHT22;53889;50.084;8.646;2022-11-15T08:08:47;11.80;99.90
54846;DHT22;53889;50.084;8.646;2022-11-15T08:11:33;11.90;99.90
54846;DHT22;53889;50.084;8.646;2022-11-15T08:14:18;11.90;99.90
54846;DHT22;53889;50.084;8.646;2022-11-15T08:17:06;12.00;99.90
54846;DHT22;53889;50.084;8.646;2022-11-15T08:19:52;12.10;99.90
54846;DHT22;53889;50.084;8.646;2022-11-15T08:22:39;12.20;99.90
54846;DHT22;53889;50.084;8.646;2022-11-15T08:25:25;12.30;99.90
54846;DHT22;53889;50.084;8.646;2022-11-15T08:28:11;12.30;99.90
54846;DHT22;53889;50.084;8.646;2022-11-15T08:30:57;12.30;99.90
54846;DHT22;53889;50.084;8.646;2022-11-15T08:33:43;12.40;99.90
54846;DHT22;53889;50.084;8.646;2022-11-15T08:36:29;12.30;99.90
54846;DHT22;53889;50.084;8.646;2022-11-15T08:39:16;12.40;99.90
54846;DHT22;53889;50.084;8.646;2022-11-15T08:42:02;12.40;99.90
54846;DHT22;53889;50.084;8.646;2022-11-15T08:44:47;12.40;99.90
54846;DHT22;53889;50.084;8.646;2022-11-15T08:47:33;12.40;99.90
54846;DHT22;53889;50.084;8.646;2022-11-15T08:50:19;12.40;99.90
54846;DHT22;53889;50.084;8.646;2022-11-15T08:53:05;12.40;99.90
54846;DHT22;53889;50.084;8.646;2022-11-15T08:55:52;12.40;99.90
54846;DHT22;53889;50.084;8.646;2022-11-15T08:58:38;13.60;99.90
54846;DHT22;53889;50.084;8.646;2022-11-15T09:01:23;12.40;99.90
54846;DHT22;53889;50.084;8.646;2022-11-15T09:04:09;12.40;99.90
54846;DHT22;53889;50.084;8.646;2022-11-15T09:06:54;12.40;99.90
54846;DHT22;53889;50.084;8.646;2022-11-15T09:09:40;12.50;99.90
54846;DHT22;53889;50.084;8.646;2022-11-15T09:12:27;12.50;99.90
54846;DHT22;53889;50.084;8.646;2022-11-15T09:15:13;12.60;99.90
54846;DHT22;53889;50.084;8.646;2022-11-15T09:17:59;13.00;99.90
54846;DHT22;53889;50.084;8.646;2022-11-15T09:20:44;12.70;99.90
54846;DHT22;53889;50.084;8.646;2022-11-15T09:23:30;12.80;99.90
54846;DHT22;53889;50.084;8.646;2022-11-15T09:26:15;13.00;99.90
54846;DHT22;53889;50.084;8.646;2022-11-15T09:29:02;13.00;99.90
54846;DHT22;53889;50.084;8.646;2022-11-15T09:31:47;13.10;99.90
54846;DHT22;53889;50.084;8.646;2022-11-15T09:34:33;13.10;99.90
54846;DHT22;53889;50.084;8.646;2022-11-15T09:37:18;13.10;99.90
54846;DHT22;53889;50.084;8.646;2022-11-15T09:40:05;13.00;99.90
54846;DHT22;53889;50.084;8.646;2022-11-15T09:43:06;13.00;99.90
54846;DHT22;53889;50.084;8.646;2022-11-15T09:46:04;12.90;99.90
54846;DHT22;53889;50.084;8.646;2022-11-15T09:49:01;12.90;99.90
54846;DHT22;53889;50.084;8.646;2022-11-15T09:51:49;12.90;99.90
54846;DHT22;53889;50.084;8.646;2022-11-15T09:54:25;13.00;99.90
54846;DHT22;53889;50.084;8.646;2022-11-15T09:56:55;13.60;99.90
54846;DHT22;53889;50.084;8.646;2022-11-15T09:59:37;14.30;99.90
54846;DHT22;53889;50.084;8.646;2022-11-15T10:02:18;15.20;99.90
54846;DHT22;53889;50.084;8.646;2022-11-15T10:04:47;16.00;99.90
54846;DHT22;53889;50.084;8.646;2022-11-15T10:07:15;16.50;99.90
54846;DHT22;53889;50.084;8.646;2022-11-15T10:09:49;17.00;99.90
54846;DHT22;53889;50.084;8.646;2022-11-15T10:12:18;17.20;99.90
54846;DHT22;53889;50.084;8.646;2022-11-15T10:14:46;17.50;99.90
54846;DHT22;53889;50.084;8.646;2022-11-15T10:17:34;17.40;99.90
54846;DHT22;53889;50.084;8.646;2022-11-15T10:20:12;16.90;99.90
54846;DHT22;53889;50.084;8.646;2022-11-15T10:22:45;16.40;99.90
54846;DHT22;53889;50.084;8.646;2022-11-15T10:25:20;16.00;99.90
54846;DHT22;53889;50.084;8.646;2022-11-15T10:27:55;15.40;99.90
54846;DHT22;53889;50.084;8.646;2022-11-15T10:30:28;15.00;99.90
54846;DHT22;53889;50.084;8.646;2022-11-15T10:32:57;14.70;99.90
54846;DHT22;53889;50.084;8.646;2022-11-15T10:35:26;14.50;99.90
54846;DHT22;53889;50.084;8.646;2022-11-15T10:38:04;14.30;99.90
54846;DHT22;53889;50.084;8.646;2022-11-15T10:40:32;14.40;99.90
54846;DHT22;53889;50.084;8.646;2022-11-15T10:43:06;14.20;99.90
54846;DHT22;53889;50.084;8.646;2022-11-15T10:45:38;13.80;99.90
54846;DHT22;53889;50.084;8.646;2022-11-15T10:48:23;13.80;99.90
54846;DHT22;53889;50.084;8.646;2022-11-15T10:50:52;13.70;99.90
54846;DHT22;53889;50.084;8.646;2022-11-15T10:53:26;13.70;99.90
54846;DHT22;53889;50.084;8.646;2022-11-15T10:55:55;14.00;99.90
54846;DHT22;53889;50.084;8.646;2022-11-15T10:58:32;14.00;99.90
54846;DHT22;53889;50.084;8.646;2022-11-15T11:01:09;14.10;99.90
54846;DHT22;53889;50.084;8.646;2022-11-15T11:03:38;14.00;99.90
54846;DHT22;53889;50.084;8.646;2022-11-15T11:06:09;14.00;99.90
54846;DHT22;53889;50.084;8.646;2022-11-15T11:08:36;14.00;99.90
54846;DHT22;53889;50.084;8.646;2022-11-15T11:11:04;14.00;99.90
54846;DHT22;53889;50.084;8.646;2022-11-15T11:13:35;14.10;99.90
54846;DHT22;53889;50.084;8.646;2022-11-15T11:16:30;14.20;99.90
54846;DHT22;53889;50.084;8.646;2022-11-15T11:19:12;14.30;99.90
54846;DHT22;53889;50.084;8.646;2022-11-15T11:21:49;14.30;99.90
54846;DHT22;53889;50.084;8.646;2022-11-15T11:24:22;14.30;99.90
54846;DHT22;53889;50.084;8.646;2022-11-15T11:27:04;14.50;99.90
54846;DHT22;53889;50.084;8.646;2022-11-15T11:29:44;14.50;99.90
54846;DHT22;53889;50.084;8.646;2022-11-15T11:32:28;14.40;99.90
54846;DHT22;53889;50.084;8.646;2022-11-15T11:35:04;14.40;99.90
54846;DHT22;53889;50.084;8.646;2022-11-15T11:37:37;14.30;99.90
54846;DHT22;53889;50.084;8.646;2022-11-15T11:40:16;14.40;99.90
54846;DHT22;53889;50.084;8.646;2022-11-15T11:42:53;14.40;99.90
54846;DHT22;53889;50.084;8.646;2022-11-15T11:48:23;14.60;99.90
54846;DHT22;53889;50.084;8.646;2022-11-15T11:50:58;14.70;99.90
54846;DHT22;53889;50.084;8.646;2022-11-15T11:53:31;14.70;99.90
54846;DHT22;53889;50.084;8.646;2022-11-15T11:56:03;14.70;99.90
54846;DHT22;53889;50.084;8.646;2022-11-15T11:58:34;14.60;99.90
54846;DHT22;53889;50.084;8.646;2022-11-15T12:01:10;14.60;99.90
54846;DHT22;53889;50.084;8.646;2022-11-15T12:03:42;14.60;99.90
54846;DHT22;53889;50.084;8.646;2022-11-15T12:06:21;14.80;99.90
54846;DHT22;53889;50.084;8.646;2022-11-15T12:08:53;15.00;99.90
54846;DHT22;53889;50.084;8.646;2022-11-15T12:11:35;15.30;99.90
54846;DHT22;53889;50.084;8.646;2022-11-15T12:14:22;15.40;99.90
54846;DHT22;53889;50.084;8.646;2022-11-15T12:16:51;15.40;99.90
54846;DHT22;53889;50.084;8.646;2022-11-15T12:19:18;15.00;99.90
54846;DHT22;53889;50.084;8.646;2022-11-15T12:21:50;14.90;99.90
54846;DHT22;53889;50.084;8.646;2022-11-15T12:24:21;14.70;99.90
54846;DHT22;53889;50.084;8.646;2022-11-15T12:26:52;14.80;99.90
54846;DHT22;53889;50.084;8.646;2022-11-15T12:29:25;15.10;99.90
54846;DHT22;53889;50.084;8.646;2022-11-15T12:31:55;15.20;99.90
54846;DHT22;53889;50.084;8.646;2022-11-15T12:34:43;15.40;99.90
54846;DHT22;53889;50.084;8.646;2022-11-15T12:40:26;15.20;99.90
54846;DHT22;53889;50.084;8.646;2022-11-15T12:45:44;15.00;99.90
54846;DHT22;53889;50.084;8.646;2022-11-15T12:54:56;15.00;99.90
54846;DHT22;53889;50.084;8.646;2022-11-15T12:57:39;15.00;99.90
54846;DHT22;53889;50.084;8.646;2022-11-15T13:03:27;14.80;99.90
54846;DHT22;53889;50.084;8.646;2022-11-15T13:06:06;14.90;99.90
54846;DHT22;53889;50.084;8.646;2022-11-15T13:08:43;15.30;99.90
54846;DHT22;53889;50.084;8.646;2022-11-15T13:11:53;15.00;99.90
54846;DHT22;53889;50.084;8.646;2022-11-15T13:14:41;15.00;99.90
54846;DHT22;53889;50.084;8.646;2022-11-15T13:17:37;15.20;99.90
54846;DHT22;53889;50.084;8.646;2022-11-15T13:20:18;14.90;99.90
54846;DHT22;53889;50.084;8.646;2022-11-15T13:22:47;14.90;99.90
54846;DHT22;53889;50.084;8.646;2022-11-15T13:25:19;15.00;99.90
54846;DHT22;53889;50.084;8.646;2022-11-15T13:27:48;14.90;99.90
54846;DHT22;53889;50.084;8.646;2022-11-15T13:30:19;14.90;99.90
54846;DHT22;53889;50.084;8.646;2022-11-15T13:32:47;14.90;99.90
54846;DHT22;53889;50.084;8.646;2022-11-15T13:35:19;14.80;99.90
54846;DHT22;53889;50.084;8.646;2022-11-15T13:37:47;14.50;99.90
54846;DHT22;53889;50.084;8.646;2022-11-15T13:40:25;14.50;99.90
54846;DHT22;53889;50.084;8.646;2022-11-15T13:42:56;14.50;99.90
54846;DHT22;53889;50.084;8.646;2022-11-15T13:45:24;14.70;99.90
54846;DHT22;53889;50.084;8.646;2022-11-15T13:47:53;14.50;99.90
54846;DHT22;53889;50.084;8.646;2022-11-15T13:50:22;14.60;99.90
54846;DHT22;53889;50.084;8.646;2022-11-15T13:52:51;14.50;99.90
54846;DHT22;53889;50.084;8.646;2022-11-15T13:55:21;15.00;99.90
54846;DHT22;53889;50.084;8.646;2022-11-15T13:57:50;14.50;99.90
54846;DHT22;53889;50.084;8.646;2022-11-15T14:00:32;14.60;99.90
54846;DHT22;53889;50.084;8.646;2022-11-15T14:03:07;14.60;99.90
54846;DHT22;53889;50.084;8.646;2022-11-15T14:05:35;14.50;99.90
54846;DHT22;53889;50.084;8.646;2022-11-15T14:08:05;14.40;99.90
54846;DHT22;53889;50.084;8.646;2022-11-15T14:10:41;14.50;99.90
54846;DHT22;53889;50.084;8.646;2022-11-15T14:13:26;14.50;99.90
54846;DHT22;53889;50.084;8.646;2022-11-15T14:15:54;14.40;99.90
54846;DHT22;53889;50.084;8.646;2022-11-15T14:18:41;14.40;99.90
54846;DHT22;53889;50.084;8.646;2022-11-15T14:21:09;14.40;99.90
54846;DHT22;53889;50.084;8.646;2022-11-15T14:23:36;14.40;99.90
54846;DHT22;53889;50.084;8.646;2022-11-15T14:26:03;14.40;99.90
54846;DHT22;53889;50.084;8.646;2022-11-15T14:28:31;14.40;99.90
54846;DHT22;53889;50.084;8.646;2022-11-15T14:31:10;15.30;99.90
54846;DHT22;53889;50.084;8.646;2022-11-15T14:33:38;14.40;99.90
54846;DHT22;53889;50.084;8.646;2022-11-15T14:36:11;14.40;99.90
54846;DHT22;53889;50.084;8.646;2022-11-15T14:38:38;14.40;99.90
54846;DHT22;53889;50.084;8.646;2022-11-15T14:41:08;14.40;99.90
54846;DHT22;53889;50.084;8.646;2022-11-15T14:43:36;14.30;99.90
54846;DHT22;53889;50.084;8.646;2022-11-15T14:46:05;14.30;99.90
54846;DHT22;53889;50.084;8.646;2022-11-15T14:48:31;14.30;99.90
54846;DHT22;53889;50.084;8.646;2022-11-15T14:50:58;14.30;99.90
54846;DHT22;53889;50.084;8.646;2022-11-15T14:53:25;14.30;99.90
54846;DHT22;53889;50.084;8.646;2022-11-15T14:55:51;14.30;99.90
54846;DHT22;53889;50.084;8.646;2022-11-15T14:58:18;14.30;99.90
54846;DHT22;53889;50.084;8.646;2022-11-15T15:00:45;14.40;99.90
54846;DHT22;53889;50.084;8.646;2022-11-15T15:03:13;14.30;99.90
54846;DHT22;53889;50.084;8.646;2022-11-15T15:05:41;14.40;99.90
54846;DHT22;53889;50.084;8.646;2022-11-15T15:08:08;14.40;99.90
54846;DHT22;53889;50.084;8.646;2022-11-15T15:10:37;14.30;99.90
54846;DHT22;53889;50.084;8.646;2022-11-15T15:13:05;14.30;99.90
54846;DHT22;53889;50.084;8.646;2022-11-15T15:15:34;14.30;99.90
54846;DHT22;53889;50.084;8.646;2022-11-15T15:18:01;14.20;99.90
54846;DHT22;53889;50.084;8.646;2022-11-15T15:20:29;14.20;99.90
54846;DHT22;53889;50.084;8.646;2022-11-15T15:22:56;14.20;99.90
54846;DHT22;53889;50.084;8.646;2022-11-15T15:25:26;14.80;99.90
54846;DHT22;53889;50.084;8.646;2022-11-15T15:27:54;14.10;99.90
54846;DHT22;53889;50.084;8.646;2022-11-15T15:30:25;14.00;99.90
54846;DHT22;53889;50.084;8.646;2022-11-15T15:32:52;14.00;99.90
54846;DHT22;53889;50.084;8.646;2022-11-15T15:35:19;14.00;99.90
54846;DHT22;53889;50.084;8.646;2022-11-15T15:37:48;14.00;99.90
54846;DHT22;53889;50.084;8.646;2022-11-15T15:40:19;14.00;99.90
54846;DHT22;53889;50.084;8.646;2022-11-15T15:42:47;14.00;99.90
54846;DHT22;53889;50.084;8.646;2022-11-15T15:45:15;14.00;99.90
54846;DHT22;53889;50.084;8.646;2022-11-15T15:47:42;14.00;99.90
54846;DHT22;53889;50.084;8.646;2022-11-15T15:50:21;14.00;99.90
54846;DHT22;53889;50.084;8.646;2022-11-15T15:52:50;13.90;99.90
54846;DHT22;53889;50.084;8.646;2022-11-15T15:55:17;13.90;99.90
54846;DHT22;53889;50.084;8.646;2022-11-15T15:57:44;13.90;99.90
54846;DHT22;53889;50.084;8.646;2022-11-15T16:00:12;13.80;99.90
54846;DHT22;53889;50.084;8.646;2022-11-15T16:02:39;13.80;99.90
54846;DHT22;53889;50.084;8.646;2022-11-15T16:05:06;13.70;99.90
54846;DHT22;53889;50.084;8.646;2022-11-15T16:07:33;13.70;99.90
54846;DHT22;53889;50.084;8.646;2022-11-15T16:10:02;13.80;99.90
54846;DHT22;53889;50.084;8.646;2022-11-15T16:12:30;13.80;99.90
54846;DHT22;53889;50.084;8.646;2022-11-15T16:14:57;13.80;99.90
54846;DHT22;53889;50.084;8.646;2022-11-15T16:17:25;13.80;99.90
54846;DHT22;53889;50.084;8.646;2022-11-15T16:19:53;13.80;99.90
54846;DHT22;53889;50.084;8.646;2022-11-15T16:22:19;13.80;99.90
54846;DHT22;53889;50.084;8.646;2022-11-15T16:24:46;13.60;99.90
54846;DHT22;53889;50.084;8.646;2022-11-15T16:27:17;13.70;99.90
54846;DHT22;53889;50.084;8.646;2022-11-15T16:29:44;13.70;99.90
54846;DHT22;53889;50.084;8.646;2022-11-15T16:32:11;13.70;99.90
54846;DHT22;53889;50.084;8.646;2022-11-15T16:34:38;13.70;99.90
54846;DHT22;53889;50.084;8.646;2022-11-15T16:37:05;13.70;99.90
54846;DHT22;53889;50.084;8.646;2022-11-15T16:39:35;13.70;99.90
54846;DHT22;53889;50.084;8.646;2022-11-15T16:42:01;13.70;99.90
54846;DHT22;53889;50.084;8.646;2022-11-15T16:44:29;13.60;99.90
54846;DHT22;53889;50.084;8.646;2022-11-15T16:46:56;13.70;99.90
54846;DHT22;53889;50.084;8.646;2022-11-15T16:49:23;13.70;99.90
54846;DHT22;53889;50.084;8.646;2022-11-15T16:51:50;13.70;99.90
54846;DHT22;53889;50.084;8.646;2022-11-15T16:54:17;13.70;99.90
54846;DHT22;53889;50.084;8.646;2022-11-15T16:56:43;13.70;99.90
54846;DHT22;53889;50.084;8.646;2022-11-15T16:59:14;13.70;99.90
54846;DHT22;53889;50.084;8.646;2022-11-15T17:01:43;13.70;99.90
54846;DHT22;53889;50.084;8.646;2022-11-15T17:04:16;13.70;99.90
54846;DHT22;53889;50.084;8.646;2022-11-15T17:06:45;13.60;99.90
54846;DHT22;53889;50.084;8.646;2022-11-15T17:09:13;13.60;99.90
54846;DHT22;53889;50.084;8.646;2022-11-15T17:11:41;13.70;99.90
54846;DHT22;53889;50.084;8.646;2022-11-15T17:14:08;13.60;99.90
54846;DHT22;53889;50.084;8.646;2022-11-15T17:16:35;13.60;99.90
54846;DHT22;53889;50.084;8.646;2022-11-15T17:19:04;13.60;99.90
54846;DHT22;53889;50.084;8.646;2022-11-15T17:21:31;13.40;99.90
54846;DHT22;53889;50.084;8.646;2022-11-15T17:23:58;13.40;99.90
54846;DHT22;53889;50.084;8.646;2022-11-15T17:26:25;13.50;99.90